Time;durP1;ratioP1;P1;durP2;ratioP2;P2;SDS_P1;SDS_P2;PMS_P1;PMS_P2;Temp;Humidity;BMP_temperature;BMP_pressure;BME280_temperature;BME280_humidity;BME280_pressure;Samples;Min_cycle;Max_cycle;Signal;HPM_P1;HPM_P2
2023/05/21 00:03:12;;;;;;;6.95;3.10;;;;;;;13.11;100.00;102056.72;10417736;28;20065;-70
2023/05/21 00:08:13;;;;;;;6.03;2.90;;;;;;;13.09;100.00;102047.84;10452184;28;20037;-69
2023/05/21 00:13:13;;;;;;;6.45;3.67;;;;;;;13.09;100.00;102042.31;10420696;28;20060;-70
2023/05/21 00:18:15;;;;;;;6.45;3.00;;;;;;;13.11;100.00;102042.91;10420158;28;20045;-70
2023/05/21 00:23:17;;;;;;;5.15;3.58;;;;;;;13.10;100.00;102041.25;10418846;28;20091;-69
2023/05/21 00:28:17;;;;;;;5.60;2.80;;;;;;;13.12;100.00;102025.25;10418511;28;20048;-70
2023/05/21 00:33:20;;;;;;;6.32;3.05;;;;;;;13.08;100.00;102018.53;10418931;28;20044;-69
2023/05/21 00:38:22;;;;;;;8.05;3.88;;;;;;;13.06;100.00;102008.75;10418011;28;20037;-69
2023/05/21 00:43:25;;;;;;;7.72;3.40;;;;;;;13.10;100.00;102021.88;10418015;28;20045;-70
2023/05/21 00:48:25;;;;;;;5.07;3.03;;;;;;;13.07;100.00;102011.28;10449527;28;20085;-70
2023/05/21 00:53:26;;;;;;;7.28;3.38;;;;;;;13.06;100.00;102008.75;10370655;28;20129;-69
2023/05/21 00:58:27;;;;;;;10.35;4.55;;;;;;;13.03;100.00;102007.34;10419972;28;20037;-69
2023/05/21 01:03:37;;;;;;;5.55;3.60;;;;;;;13.00;100.00;102010.59;10398505;28;20071;-70
2023/05/21 01:08:37;;;;;;;8.02;3.85;;;;;;;13.02;100.00;102010.34;10408128;28;20453;-70
2023/05/21 01:13:39;;;;;;;8.43;4.03;;;;;;;12.95;100.00;101999.41;10377753;28;20037;-70
2023/05/21 01:18:42;;;;;;;7.72;3.53;;;;;;;13.00;100.00;101995.91;10375450;28;20449;-69
2023/05/21 01:23:42;;;;;;;7.32;3.50;;;;;;;12.95;100.00;101996.66;10376788;28;20165;-70
2023/05/21 01:28:43;;;;;;;7.93;3.97;;;;;;;12.94;100.00;101995.00;10421074;28;20132;-69
2023/05/21 01:33:47;;;;;;;6.50;3.55;;;;;;;12.92;100.00;101986.09;10432469;28;20040;-70
2023/05/21 01:39:02;;;;;;;5.85;3.78;;;;;;;12.89;100.00;101975.50;10399961;28;20071;-70
2023/05/21 01:44:03;;;;;;;8.75;4.00;;;;;;;12.87;100.00;101984.03;10399733;28;20125;-70
2023/05/21 01:49:04;;;;;;;6.82;3.53;;;;;;;12.84;100.00;101989.22;10414379;28;20042;-70
2023/05/21 01:54:04;;;;;;;10.80;4.32;;;;;;;12.83;100.00;101982.00;10415503;28;20397;-71
2023/05/21 01:59:05;;;;;;;10.95;4.15;;;;;;;12.80;100.00;101976.97;10446621;28;20064;-70
2023/05/21 02:04:05;;;;;;;8.13;3.78;;;;;;;12.81;100.00;101982.25;10417106;28;20041;-70
2023/05/21 02:09:06;;;;;;;8.27;4.25;;;;;;;12.76;100.00;101975.78;10414312;28;20033;-70
2023/05/21 02:14:09;;;;;;;10.27;4.30;;;;;;;12.71;100.00;101971.81;10417276;28;20438;-69
2023/05/21 02:19:10;;;;;;;6.22;3.47;;;;;;;12.67;100.00;101973.38;10416418;28;20087;-70
2023/05/21 02:24:11;;;;;;;9.27;4.00;;;;;;;12.57;100.00;101955.72;10429950;28;20393;-70
2023/05/21 02:29:11;;;;;;;7.05;3.60;;;;;;;12.65;100.00;101970.03;10421923;28;20037;-71
2023/05/21 02:34:12;;;;;;;7.60;3.42;;;;;;;12.61;100.00;101962.44;10425506;28;20053;-70
2023/05/21 02:39:14;;;;;;;5.95;3.33;;;;;;;12.56;100.00;101956.81;10423756;28;20065;-70
2023/05/21 02:44:15;;;;;;;6.38;3.47;;;;;;;12.47;100.00;101959.09;10420404;28;20041;-70
2023/05/21 02:49:16;;;;;;;8.32;4.32;;;;;;;12.41;100.00;101962.81;10417804;28;20099;-71
2023/05/21 02:54:16;;;;;;;8.30;3.08;;;;;;;12.42;100.00;101953.44;10449048;28;20029;-71
2023/05/21 02:59:17;;;;;;;8.27;3.75;;;;;;;12.43;100.00;101949.63;10416664;28;20037;-70
2023/05/21 03:04:20;;;;;;;7.30;3.35;;;;;;;12.39;100.00;101943.72;10420179;28;20053;-70
2023/05/21 03:09:21;;;;;;;6.55;3.17;;;;;;;11.66;100.00;101856.66;10417991;28;20037;-70
2023/05/21 03:14:23;;;;;;;7.65;3.08;;;;;;;12.15;100.00;101953.91;10451978;28;20041;-70
2023/05/21 03:19:24;;;;;;;10.00;3.65;;;;;;;12.12;100.00;101951.66;10410408;28;20038;-70
2023/05/21 03:24:25;;;;;;;5.82;3.17;;;;;;;12.09;100.00;101932.78;10388020;28;20063;-70
2023/05/21 03:29:26;;;;;;;8.50;3.83;;;;;;;11.60;100.00;101843.81;10384370;28;20045;-70
2023/05/21 03:34:26;;;;;;;7.60;3.50;;;;;;;12.21;100.00;101936.38;10399048;28;20057;-69
2023/05/21 03:39:27;;;;;;;7.57;3.95;;;;;;;12.26;100.00;101942.06;10433472;28;20128;-69
2023/05/21 03:44:31;;;;;;;6.50;3.58;;;;;;;12.26;100.00;101950.34;10451402;28;20038;-70
2023/05/21 03:49:31;;;;;;;8.98;3.95;;;;;;;12.21;100.00;101949.38;10418295;28;20045;-69
2023/05/21 03:54:32;;;;;;;7.25;3.30;;;;;;;12.17;100.00;101951.75;10418306;28;20038;-71
2023/05/21 03:59:32;;;;;;;9.68;3.63;;;;;;;12.17;100.00;101939.88;10419035;28;20061;-71
2023/05/21 04:04:33;;;;;;;8.35;3.55;;;;;;;12.28;100.00;101958.38;10401808;28;20473;-71
2023/05/21 04:09:33;;;;;;;7.93;3.67;;;;;;;12.31;100.00;101957.91;10358505;28;20125;-70
2023/05/21 04:14:35;;;;;;;11.55;3.20;;;;;;;12.23;100.00;101948.03;10334916;28;20121;-70
2023/05/21 04:19:36;;;;;;;5.63;3.03;;;;;;;12.33;100.00;101961.25;10334593;28;20034;-70
2023/05/21 04:24:37;;;;;;;7.47;3.90;;;;;;;12.41;100.00;101973.88;10319246;28;20054;-70
2023/05/21 04:29:41;;;;;;;10.77;3.47;;;;;;;12.42;100.00;101958.97;10332063;28;20432;-69
2023/05/21 04:34:41;;;;;;;7.55;3.40;;;;;;;12.39;100.00;101959.47;10373154;28;20525;-70
2023/05/21 04:39:43;;;;;;;6.95;3.03;;;;;;;12.37;100.00;101956.94;10373168;28;20064;-71
2023/05/21 04:44:43;;;;;;;8.60;3.15;;;;;;;12.35;100.00;101952.75;10376138;28;20433;-70
2023/05/21 04:49:45;;;;;;;6.63;3.40;;;;;;;12.32;100.00;101937.50;10372888;28;20057;-71
2023/05/21 04:54:46;;;;;;;9.57;3.35;;;;;;;12.36;100.00;101933.19;10374056;28;20117;-70
2023/05/21 04:59:48;;;;;;;7.95;2.92;;;;;;;12.37;100.00;101942.28;10358341;28;20046;-69
2023/05/21 05:04:48;;;;;;;6.40;2.90;;;;;;;12.36;100.00;101932.31;10369927;28;20061;-70
2023/05/21 05:09:48;;;;;;;12.40;2.75;;;;;;;12.38;100.00;101930.16;10356728;28;20230;-70
2023/05/21 05:14:49;;;;;;;5.85;2.28;;;;;;;12.43;100.00;101938.56;10373143;28;20040;-69
2023/05/21 05:19:49;;;;;;;8.35;2.47;;;;;;;12.46;100.00;101930.66;10374544;28;20047;-70
2023/05/21 05:24:50;;;;;;;9.95;3.58;;;;;;;12.49;100.00;101929.31;10356680;28;20394;-70
2023/05/21 05:29:50;;;;;;;6.45;3.10;;;;;;;12.59;100.00;101926.78;10372894;28;20045;-70
2023/05/21 05:34:51;;;;;;;7.82;2.70;;;;;;;12.69;100.00;101932.53;10371058;28;20041;-70
2023/05/21 05:39:51;;;;;;;12.02;4.32;;;;;;;12.72;100.00;101928.44;10371669;28;20461;-70
2023/05/21 05:44:52;;;;;;;7.10;2.67;;;;;;;12.74;100.00;101917.16;10374957;28;20077;-70
2023/05/21 05:49:52;;;;;;;5.22;2.78;;;;;;;12.88;100.00;101910.28;10356795;28;20053;-70
2023/05/21 05:54:53;;;;;;;5.88;2.67;;;;;;;12.98;100.00;101927.06;10356416;28;20045;-69
2023/05/21 05:59:53;;;;;;;5.22;2.65;;;;;;;13.04;100.00;101928.88;10350023;28;20038;-71
2023/05/21 06:04:54;;;;;;;8.50;2.28;;;;;;;13.12;100.00;101925.72;10382229;28;20038;-72
2023/05/21 06:09:55;;;;;;;9.13;2.50;;;;;;;13.21;100.00;101917.00;10380925;28;20034;-70
2023/05/21 06:14:55;;;;;;;8.90;3.30;;;;;;;13.21;100.00;101912.31;10379854;28;20042;-69
2023/05/21 06:19:56;;;;;;;3.92;2.45;;;;;;;13.28;100.00;101921.31;10366163;28;20049;-69
2023/05/21 06:24:56;;;;;;;10.80;2.40;;;;;;;13.23;100.00;101921.22;10380646;28;20049;-70
2023/05/21 06:29:57;;;;;;;4.45;2.45;;;;;;;13.30;100.00;101901.72;10382394;28;20065;-70
2023/05/21 06:34:57;;;;;;;5.75;2.30;;;;;;;13.38;100.00;101903.28;10380603;28;20049;-70
2023/05/21 06:39:58;;;;;;;4.70;2.10;;;;;;;13.46;100.00;101900.94;10379270;28;20061;-70
2023/05/21 06:44:58;;;;;;;4.85;2.53;;;;;;;13.77;100.00;101904.25;10378734;28;20046;-69
2023/05/21 06:49:59;;;;;;;8.85;3.67;;;;;;;13.88;100.00;101895.00;10381310;28;20050;-70
2023/05/21 06:54:59;;;;;;;6.32;2.92;;;;;;;14.03;100.00;101896.34;10419500;28;20037;-70
2023/05/21 07:00:00;;;;;;;7.63;3.25;;;;;;;14.18;100.00;101890.19;10422883;28;20041;-70
2023/05/21 07:05:01;;;;;;;8.55;2.67;;;;;;;14.25;100.00;101877.03;10420822;28;20037;-70
2023/05/21 07:10:01;;;;;;;6.22;2.58;;;;;;;14.53;100.00;101887.09;10419985;28;20057;-70
2023/05/21 07:15:02;;;;;;;6.18;3.10;;;;;;;14.77;100.00;101884.13;10418372;28;20037;-69
2023/05/21 07:20:07;;;;;;;8.20;2.78;;;;;;;14.80;100.00;101864.19;10420342;28;20046;-70
2023/05/21 07:25:08;;;;;;;5.75;3.30;;;;;;;14.93;100.00;101869.38;10420249;28;20076;-70
2023/05/21 07:30:09;;;;;;;5.05;2.83;;;;;;;15.00;100.00;101872.75;10419679;28;20104;-70
2023/05/21 07:35:09;;;;;;;7.65;2.60;;;;;;;15.03;100.00;101871.44;10419376;28;20037;-71
2023/05/21 07:40:10;;;;;;;5.75;3.20;;;;;;;15.06;100.00;101877.28;10399575;28;20057;-70
2023/05/21 07:45:11;;;;;;;5.75;2.33;;;;;;;15.11;100.00;101866.25;10397730;28;20056;-70
2023/05/21 07:50:12;;;;;;;8.73;2.65;;;;;;;15.17;100.00;101872.66;10396719;28;20042;-70
2023/05/21 07:55:13;;;;;;;6.63;2.22;;;;;;;15.18;100.00;101867.97;10398256;28;20041;-69
2023/05/21 08:00:13;;;;;;;6.72;3.05;;;;;;;15.28;100.00;101868.09;10396839;28;20045;-70
2023/05/21 08:05:15;;;;;;;6.07;2.63;;;;;;;15.51;100.00;101872.47;10404355;28;20101;-71
2023/05/21 08:10:15;;;;;;;8.10;3.67;;;;;;;15.62;100.00;101859.50;10417758;28;20049;-69
2023/05/21 08:15:16;;;;;;;5.72;3.28;;;;;;;15.72;100.00;101852.13;10400481;28;20568;-69
2023/05/21 08:20:16;;;;;;;7.88;2.78;;;;;;;15.94;100.00;101851.22;10397527;28;20052;-69
2023/05/21 08:25:17;;;;;;;6.90;3.00;;;;;;;16.12;100.00;101849.91;10398415;28;20100;-69
2023/05/21 08:30:17;;;;;;;9.40;3.13;;;;;;;16.51;100.00;101846.81;10394951;28;20272;-70
2023/05/21 08:35:18;;;;;;;7.93;3.30;;;;;;;16.74;100.00;101839.94;10396558;28;20038;-70
2023/05/21 08:40:18;;;;;;;4.88;2.45;;;;;;;16.79;100.00;101836.38;10391918;28;20102;-70
2023/05/21 08:45:20;;;;;;;7.63;2.90;;;;;;;16.51;100.00;101838.47;10384528;28;20510;-70
2023/05/21 08:50:21;;;;;;;5.07;2.50;;;;;;;16.76;100.00;101846.06;10388356;28;20039;-70
2023/05/21 08:55:22;;;;;;;4.30;2.42;;;;;;;16.92;100.00;101838.66;10366133;28;20470;-70
2023/05/21 09:00:23;;;;;;;6.15;2.30;;;;;;;17.05;100.00;101854.84;10375740;28;20044;-70
2023/05/21 09:05:23;;;;;;;6.45;2.85;;;;;;;17.44;100.00;101850.72;10395431;28;20056;-70
2023/05/21 09:10:28;;;;;;;7.75;2.67;;;;;;;17.83;100.00;101837.13;10346647;28;20053;-70
2023/05/21 09:15:29;;;;;;;4.95;2.53;;;;;;;17.94;100.00;101840.72;10335131;28;20439;-71
2023/05/21 09:20:29;;;;;;;5.50;2.97;;;;;;;18.03;100.00;101843.78;10332754;28;20053;-70
2023/05/21 09:25:30;;;;;;;7.13;2.60;;;;;;;18.05;100.00;101836.00;10317833;28;20062;-71
2023/05/21 09:30:31;;;;;;;5.57;2.45;;;;;;;18.20;100.00;101833.16;10329187;28;20069;-71
2023/05/21 09:35:31;;;;;;;5.53;3.10;;;;;;;18.58;100.00;101827.16;10324096;28;20474;-70
2023/05/21 09:40:33;;;;;;;4.88;2.63;;;;;;;19.00;100.00;101826.72;10365030;28;20053;-71
2023/05/21 09:45:33;;;;;;;6.40;3.30;;;;;;;19.29;100.00;101825.97;10376145;28;20033;-69
2023/05/21 09:50:34;;;;;;;7.05;3.13;;;;;;;19.25;100.00;101819.31;10391283;28;20038;-69
2023/05/21 09:55:35;;;;;;;9.95;3.08;;;;;;;19.39;100.00;101809.16;10392685;28;20125;-70
2023/05/21 10:00:35;;;;;;;7.03;3.28;;;;;;;19.58;100.00;101814.84;10390027;28;20517;-70
2023/05/21 10:05:36;;;;;;;7.82;3.80;;;;;;;19.64;100.00;101804.47;10356972;28;20042;-70
2023/05/21 10:10:36;;;;;;;5.72;3.45;;;;;;;19.89;100.00;101814.59;10395580;28;20041;-70
2023/05/21 10:15:38;;;;;;;8.32;4.47;;;;;;;20.16;100.00;101800.88;10402397;28;20041;-69
2023/05/21 10:20:38;;;;;;;6.22;4.03;;;;;;;20.25;100.00;101792.66;10397349;28;20061;-69
2023/05/21 10:25:39;;;;;;;8.43;4.65;;;;;;;19.90;100.00;101805.91;10382061;28;20033;-69
2023/05/21 10:30:39;;;;;;;8.57;4.18;;;;;;;19.52;100.00;101797.31;10414629;28;20065;-70
2023/05/21 10:35:40;;;;;;;6.47;4.38;;;;;;;19.28;100.00;101785.22;10357246;28;20075;-70
2023/05/21 10:40:40;;;;;;;8.70;4.60;;;;;;;19.21;100.00;101793.91;10341639;28;20045;-70
2023/05/21 10:46:28;;;;;;;8.52;4.63;;;;;;;19.12;100.00;101793.72;10373814;28;20517;-70
2023/05/21 10:51:29;;;;;;;10.48;5.13;;;;;;;18.96;100.00;101775.41;10408695;28;20442;-70
2023/05/21 10:56:35;;;;;;;13.02;7.25;;;;;;;18.88;100.00;101776.00;10402899;28;20041;-70
2023/05/21 11:01:36;;;;;;;7.03;5.38;;;;;;;19.08;100.00;101769.44;10371300;28;20033;-70
2023/05/21 11:06:37;;;;;;;12.65;5.70;;;;;;;19.02;100.00;101760.28;10402623;28;20062;-70
2023/05/21 11:11:45;;;;;;;10.20;5.20;;;;;;;19.52;100.00;101749.00;10419362;28;20065;-70
2023/05/21 11:16:45;;;;;;;11.57;6.18;;;;;;;19.83;100.00;101737.53;10421140;28;20515;-70
2023/05/21 11:21:50;;;;;;;9.88;6.32;;;;;;;20.13;100.00;101731.59;10402649;28;20037;-70
2023/05/21 11:26:51;;;;;;;8.30;5.53;;;;;;;20.50;100.00;101729.97;10397732;28;20042;-70
2023/05/21 11:32:00;;;;;;;11.32;5.68;;;;;;;20.83;100.00;101729.28;10400491;28;20044;-70
2023/05/21 11:37:16;;;;;;;13.68;7.00;;;;;;;21.17;100.00;101732.66;10418673;28;20128;-70
2023/05/21 11:42:33;;;;;;;11.23;6.55;;;;;;;21.73;100.00;101730.84;10419847;28;20052;-70
2023/05/21 11:47:33;;;;;;;10.43;6.18;;;;;;;22.08;100.00;101713.66;10420985;28;20034;-71
2023/05/21 11:52:33;;;;;;;14.30;7.00;;;;;;;22.83;100.00;101708.63;10418136;28;20103;-71
2023/05/21 11:57:34;;;;;;;17.13;8.32;;;;;;;23.27;100.00;101710.63;10420022;28;20036;-73
2023/05/21 12:02:34;;;;;;;14.02;8.48;;;;;;;23.88;100.00;101704.56;10417522;28;20036;-72
2023/05/21 12:07:35;;;;;;;13.30;8.52;;;;;;;23.88;100.00;101691.31;10418644;28;20037;-70
2023/05/21 12:12:36;;;;;;;15.48;8.93;;;;;;;23.72;100.00;101692.88;10413700;28;20052;-72
2023/05/21 12:17:38;;;;;;;13.48;9.27;;;;;;;23.84;100.00;101679.06;10418355;28;20036;-71
2023/05/21 12:22:42;;;;;;;14.55;9.35;;;;;;;24.10;100.00;101692.38;10417813;28;20030;-70
2023/05/21 12:27:43;;;;;;;18.95;11.40;;;;;;;24.37;100.00;101675.22;10418031;28;20025;-69
2023/05/21 12:32:44;;;;;;;23.58;12.93;;;;;;;24.49;100.00;101694.28;10399797;28;20065;-70
2023/05/21 12:37:44;;;;;;;20.40;11.90;;;;;;;25.04;100.00;101692.81;10375091;28;20049;-70
2023/05/21 12:42:45;;;;;;;20.45;13.27;;;;;;;25.42;100.00;101675.19;10386913;28;20042;-69
2023/05/21 12:47:54;;;;;;;16.02;11.80;;;;;;;25.75;100.00;101685.84;10415403;28;20096;-69
2023/05/21 12:52:56;;;;;;;17.50;11.50;;;;;;;25.33;100.00;101680.03;10415562;28;20503;-70
2023/05/21 12:58:02;;;;;;;17.67;11.40;;;;;;;25.67;100.00;101689.53;10417179;28;20057;-70
2023/05/21 13:03:04;;;;;;;17.63;12.20;;;;;;;25.67;100.00;101686.72;10415392;28;20116;-70
2023/05/21 13:08:05;;;;;;;17.30;11.20;;;;;;;25.54;100.00;101680.94;10405070;28;20795;-70
2023/05/21 13:13:05;;;;;;;17.25;12.00;;;;;;;25.76;100.00;101674.22;10395665;28;20049;-71
2023/05/21 13:18:06;;;;;;;15.80;11.80;;;;;;;26.24;100.00;101677.81;10395366;28;20033;-72
2023/05/21 13:23:06;;;;;;;19.40;11.85;;;;;;;26.27;100.00;101660.19;10392531;28;20037;-72
2023/05/21 13:28:09;;;;;;;17.73;12.27;;;;;;;26.31;100.00;101661.16;10393153;28;20041;-73
2023/05/21 13:33:10;;;;;;;15.82;11.05;;;;;;;26.16;100.00;101653.31;10392822;28;20044;-69
2023/05/21 13:38:11;;;;;;;16.50;11.43;;;;;;;26.01;100.00;101651.09;10392713;28;20037;-70
2023/05/21 13:43:11;;;;;;;15.75;10.85;;;;;;;25.94;100.00;101641.16;10387881;28;20038;-72
2023/05/21 13:48:12;;;;;;;16.95;11.68;;;;;;;26.26;100.00;101633.16;10389297;28;20038;-73
2023/05/21 13:53:12;;;;;;;19.08;12.82;;;;;;;26.33;100.00;101624.94;10392958;28;20045;-72
2023/05/21 13:58:13;;;;;;;17.10;11.05;;;;;;;25.88;100.00;101634.03;10388869;28;20125;-72
2023/05/21 14:03:13;;;;;;;19.27;11.52;;;;;;;25.84;100.00;101627.41;10391678;28;20038;-69
2023/05/21 14:08:18;;;;;;;16.95;10.93;;;;;;;26.04;100.00;101625.81;10391516;28;20130;-71
2023/05/21 14:13:19;;;;;;;16.90;10.70;;;;;;;25.53;100.00;101631.38;10370603;28;20049;-68
2023/05/21 14:18:20;;;;;;;14.80;10.60;;;;;;;25.06;100.00;101633.31;10386308;28;20041;-74
2023/05/21 14:23:20;;;;;;;19.75;11.95;;;;;;;24.96;100.00;101628.88;10393720;28;20033;-71
2023/05/21 14:28:21;;;;;;;17.95;10.88;;;;;;;24.92;100.00;101627.88;10400352;28;20041;-69
2023/05/21 14:33:21;;;;;;;16.98;11.40;;;;;;;24.51;100.00;101635.69;10399327;28;20025;-77
2023/05/21 14:38:22;;;;;;;16.45;11.48;;;;;;;24.14;100.00;101634.28;10383491;28;20069;-72
2023/05/21 14:43:22;;;;;;;19.75;11.07;;;;;;;24.54;100.00;101637.03;10381771;28;20037;-72
2023/05/21 14:48:23;;;;;;;15.68;11.48;;;;;;;25.18;100.00;101630.66;10399009;28;20042;-70
2023/05/21 14:53:23;;;;;;;18.58;11.40;;;;;;;26.19;100.00;101615.94;10397589;28;20033;-73
2023/05/21 14:58:23;;;;;;;16.50;11.30;;;;;;;27.21;100.00;101607.19;10382493;28;20049;-69
2023/05/21 15:03:24;;;;;;;14.27;10.90;;;;;;;26.93;100.00;101607.81;10398751;28;20025;-79
2023/05/21 15:08:25;;;;;;;17.38;11.57;;;;;;;26.96;100.00;101607.16;10412920;28;20068;-70
2023/05/21 15:13:26;;;;;;;18.95;10.93;;;;;;;27.08;100.00;101601.53;10420665;28;20041;-70
2023/05/21 15:18:28;;;;;;;17.65;12.05;;;;;;;26.89;100.00;101601.22;10421096;28;20056;-70
2023/05/21 15:23:28;;;;;;;18.10;12.18;;;;;;;26.42;100.00;101604.28;10416328;28;20041;-70
2023/05/21 15:28:29;;;;;;;20.65;12.07;;;;;;;25.44;100.00;101610.03;10400059;28;20494;-71
2023/05/21 15:33:29;;;;;;;21.08;13.07;;;;;;;25.12;100.00;101620.72;10396536;28;20034;-72
2023/05/21 15:38:30;;;;;;;16.00;11.93;;;;;;;24.71;100.00;101622.13;10387205;28;20034;-71
2023/05/21 15:43:30;;;;;;;18.30;11.90;;;;;;;24.43;100.00;101622.41;10380768;28;20136;-70
2023/05/21 15:48:31;;;;;;;19.60;12.52;;;;;;;24.26;100.00;101622.41;10396625;28;20038;-71
2023/05/21 15:53:31;;;;;;;19.95;13.90;;;;;;;23.80;100.00;101621.81;10397667;28;20056;-70
2023/05/21 15:58:31;;;;;;;18.75;11.98;;;;;;;23.76;100.00;101606.72;10377640;28;20046;-67
2023/05/21 16:03:32;;;;;;;21.35;13.13;;;;;;;23.24;100.00;101606.53;10400269;28;20048;-70
2023/05/21 16:08:33;;;;;;;24.80;12.10;;;;;;;22.71;100.00;101614.56;10399283;28;20034;-70
2023/05/21 16:13:33;;;;;;;19.65;12.55;;;;;;;22.48;100.00;101610.13;10379410;28;20034;-70
2023/05/21 16:18:34;;;;;;;22.95;13.07;;;;;;;22.32;100.00;101610.47;10390071;28;20068;-70
2023/05/21 16:23:37;;;;;;;19.85;13.70;;;;;;;22.07;100.00;101609.03;10384169;28;20488;-70
2023/05/21 16:28:37;;;;;;;18.92;11.52;;;;;;;22.08;100.00;101613.53;10380362;28;20521;-71
2023/05/21 16:33:38;;;;;;;27.08;12.98;;;;;;;22.18;100.00;101592.84;10417313;28;20026;-69
2023/05/21 16:38:39;;;;;;;20.02;12.20;;;;;;;22.47;100.00;101602.81;10415116;28;20520;-70
2023/05/21 16:43:39;;;;;;;20.60;12.70;;;;;;;22.50;100.00;101593.78;10416437;28;20052;-69
2023/05/21 16:48:41;;;;;;;18.02;11.98;;;;;;;22.21;100.00;101547.31;10416518;28;20033;-70
2023/05/21 16:53:41;;;;;;;22.27;11.98;;;;;;;22.71;100.00;101592.13;10415402;28;20037;-70
2023/05/21 16:58:42;;;;;;;19.13;11.07;;;;;;;23.09;100.00;101586.13;10398391;28;20033;-69
2023/05/21 17:03:42;;;;;;;16.85;11.00;;;;;;;23.27;100.00;101569.34;10417250;28;20033;-69
2023/05/21 17:08:43;;;;;;;19.50;11.85;;;;;;;23.05;100.00;101544.94;10344799;28;20736;-69
2023/05/21 17:13:46;;;;;;;16.88;11.38;;;;;;;22.86;100.00;101570.41;10355033;28;20066;-70
2023/05/21 17:18:47;;;;;;;18.02;12.20;;;;;;;22.55;100.00;101572.06;10341680;28;20046;-70
2023/05/21 17:23:48;;;;;;;22.60;12.63;;;;;;;22.12;100.00;101566.06;10357475;28;20084;-69
2023/05/21 17:28:48;;;;;;;18.40;11.98;;;;;;;21.77;100.00;101569.34;10347316;28;20549;-70
2023/05/21 17:33:49;;;;;;;20.38;11.38;;;;;;;21.49;100.00;101576.09;10351247;28;20042;-69
2023/05/21 17:38:49;;;;;;;21.38;13.52;;;;;;;21.16;100.00;101565.78;10348325;28;20061;-71
2023/05/21 17:43:50;;;;;;;21.55;12.00;;;;;;;20.96;100.00;101566.19;10356776;28;20065;-70
2023/05/21 17:48:51;;;;;;;19.83;13.05;;;;;;;20.93;100.00;101576.00;10356895;28;20038;-71
2023/05/21 17:53:52;;;;;;;20.17;12.00;;;;;;;20.88;100.00;101567.72;10358603;28;20667;-70
2023/05/21 17:58:53;;;;;;;25.23;14.02;;;;;;;20.82;100.00;101579.31;10406899;28;20133;-70
2023/05/21 18:03:53;;;;;;;26.33;14.18;;;;;;;20.67;100.00;101577.59;10404756;28;20042;-70
2023/05/21 18:08:54;;;;;;;23.02;14.27;;;;;;;20.58;100.00;101573.81;10392611;28;20041;-70
2023/05/21 18:13:54;;;;;;;27.95;15.85;;;;;;;20.43;100.00;101572.09;10408952;28;20057;-70
2023/05/21 18:18:55;;;;;;;23.73;14.52;;;;;;;20.27;100.00;101563.94;10364158;28;20165;-69
2023/05/21 18:23:56;;;;;;;24.10;15.77;;;;;;;20.30;100.00;101587.69;10340970;28;20137;-68
2023/05/21 18:29:13;;;;;;;23.33;13.77;;;;;;;20.11;100.00;101576.47;10359442;28;20053;-70
2023/05/21 18:34:16;;;;;;;23.88;15.55;;;;;;;19.81;100.00;101563.78;10363944;28;20064;-70
2023/05/21 18:39:22;;;;;;;22.98;14.18;;;;;;;19.86;100.00;101588.84;10355719;28;20052;-70
2023/05/21 18:44:23;;;;;;;24.63;16.17;;;;;;;19.76;100.00;101592.59;10364859;28;20086;-70
2023/05/21 18:49:23;;;;;;;22.80;14.93;;;;;;;19.65;100.00;101583.47;10362310;28;20071;-71
2023/05/21 18:54:24;;;;;;;23.25;14.43;;;;;;;19.54;100.00;101582.78;10364686;28;20042;-70
2023/05/21 18:59:27;;;;;;;25.38;15.60;;;;;;;19.48;100.00;101595.16;10361366;28;20069;-70
2023/05/21 19:04:28;;;;;;;24.63;15.25;;;;;;;19.42;100.00;101593.53;10363516;28;20474;-70
2023/05/21 19:09:28;;;;;;;25.95;15.90;;;;;;;19.30;100.00;101587.53;10361614;28;20337;-71
2023/05/21 19:14:29;;;;;;;29.80;20.77;;;;;;;19.16;100.00;101581.81;10363807;28;20196;-71
2023/05/21 19:19:29;;;;;;;28.52;16.10;;;;;;;19.15;100.00;101591.31;10363669;28;20120;-70
2023/05/21 19:24:30;;;;;;;25.30;16.35;;;;;;;19.04;100.00;101596.19;10361985;28;20134;-70
2023/05/21 19:29:30;;;;;;;27.38;15.82;;;;;;;18.96;100.00;101580.06;10364458;28;20038;-70
2023/05/21 19:34:31;;;;;;;24.00;15.43;;;;;;;18.93;100.00;101589.03;10360348;28;20144;-69
2023/05/21 19:39:38;;;;;;;31.33;17.35;;;;;;;18.86;100.00;101582.97;10362397;28;21331;-70
2023/05/21 19:44:41;;;;;;;24.85;17.42;;;;;;;18.79;100.00;101593.59;10344226;28;20065;-70
2023/05/21 19:49:42;;;;;;;25.00;16.45;;;;;;;18.78;100.00;101591.94;10391918;28;20057;-70
2023/05/21 19:54:43;;;;;;;27.80;16.48;;;;;;;18.69;100.00;101595.34;10362708;28;20030;-69
2023/05/21 19:59:43;;;;;;;26.08;16.83;;;;;;;18.58;100.00;101595.72;10362897;28;20042;-69
2023/05/21 20:04:44;;;;;;;28.58;16.77;;;;;;;18.47;100.00;101589.38;10360188;28;20120;-70
2023/05/21 20:09:45;;;;;;;28.55;17.10;;;;;;;18.37;100.00;101597.81;10340397;28;20033;-70
2023/05/21 20:14:46;;;;;;;30.13;18.13;;;;;;;18.28;100.00;101592.84;10353830;28;20525;-70
2023/05/21 20:19:47;;;;;;;25.90;17.23;;;;;;;18.20;100.00;101587.06;10376292;28;20045;-69
2023/05/21 20:24:47;;;;;;;30.67;17.08;;;;;;;18.10;100.00;101588.78;10416776;28;20195;-69
2023/05/21 20:29:48;;;;;;;25.23;17.00;;;;;;;18.01;100.00;101590.53;10455106;28;20029;-69
2023/05/21 20:34:48;;;;;;;31.02;19.67;;;;;;;17.95;100.00;101588.88;10439932;28;20063;-69
2023/05/21 20:39:52;;;;;;;32.65;18.45;;;;;;;17.89;100.00;101578.88;10434259;28;20048;-69
2023/05/21 20:44:58;;;;;;;29.98;18.88;;;;;;;17.85;100.00;101575.84;10453419;28;20101;-70
2023/05/21 20:50:01;;;;;;;29.33;18.38;;;;;;;17.82;100.00;101575.53;10439432;28;20041;-70
2023/05/21 20:55:03;;;;;;;32.38;19.55;;;;;;;17.75;100.00;101573.06;10429215;28;20061;-69
2023/05/21 21:00:04;;;;;;;25.08;18.13;;;;;;;17.66;100.00;101569.22;10375544;28;20037;-69
2023/05/21 21:05:05;;;;;;;29.90;18.95;;;;;;;17.58;100.00;101569.81;10375103;28;20087;-69
2023/05/21 21:10:06;;;;;;;33.85;21.88;;;;;;;17.54;100.00;101572.31;10402142;28;20077;-69
2023/05/21 21:15:07;;;;;;;29.10;20.42;;;;;;;17.52;100.00;101569.81;10396274;28;21062;-69
2023/05/21 21:20:09;;;;;;;26.38;18.90;;;;;;;17.52;100.00;101572.59;10382631;28;20048;-69
2023/05/21 21:25:10;;;;;;;28.02;19.20;;;;;;;17.22;100.00;101523.47;10392072;28;20053;-70
2023/05/21 21:30:10;;;;;;;29.50;18.23;;;;;;;17.49;100.00;101567.63;10383794;28;20029;-70
2023/05/21 21:35:11;;;;;;;25.65;19.35;;;;;;;17.50;100.00;101560.09;10373321;28;20049;-70
2023/05/21 21:40:12;;;;;;;28.00;19.10;;;;;;;17.51;100.00;101564.56;10383680;28;20042;-70
2023/05/21 21:45:14;;;;;;;33.05;19.30;;;;;;;17.52;100.00;101561.47;10371611;28;20034;-70
2023/05/21 21:50:14;;;;;;;31.40;18.88;;;;;;;17.51;100.00;101565.38;10355265;28;20120;-69
2023/05/21 21:55:15;;;;;;;24.92;17.25;;;;;;;17.50;100.00;101563.69;10396746;28;20041;-69
2023/05/21 22:00:16;;;;;;;26.50;18.05;;;;;;;17.45;100.00;101560.94;10371699;28;20409;-68
2023/05/21 22:05:16;;;;;;;29.83;19.02;;;;;;;17.46;100.00;101561.78;10374293;28;20342;-69
2023/05/21 22:10:17;;;;;;;27.48;17.40;;;;;;;17.47;100.00;101569.03;10406280;28;20068;-70
2023/05/21 22:15:19;;;;;;;26.23;17.00;;;;;;;17.44;100.00;101562.06;10404672;28;20042;-70
2023/05/21 22:20:20;;;;;;;23.05;17.83;;;;;;;17.49;100.00;101570.41;10400300;28;20125;-70
2023/05/21 22:25:21;;;;;;;23.40;17.02;;;;;;;17.47;100.00;101563.47;10414469;28;20490;-70
2023/05/21 22:30:21;;;;;;;24.90;18.23;;;;;;;17.43;100.00;101574.31;10379728;28;20038;-70
2023/05/21 22:35:22;;;;;;;26.60;17.58;;;;;;;17.37;100.00;101569.06;10413777;28;20041;-69